Austin, MN

5:47 PM CST on February 26, 2015 (GMT -0600)
Austin Municipal | Change Station
CLOSE
Current Station
Airport
Location: Austin,
Elevation: 1230 ft
Nearby Weather Stations
Active Advisory: Special Statement

Elev 1230 ft 43.67 °N, 92.93 °W | Updated 11 minutes ago

Clear
Clear
1 °F
Feels Like -14 °F
N
10
Wind Variable Wind from WNW

Today
High -- | Low -- °F
--% Chance of Precip.
Yesterday
High -- | Low -- °F
Precip. -- in
6:53 AM 5:56 PM
Waxing Gibbous, 63% visible
Pressure 30.41 in
Visibility 10.0 miles
Clouds Clear
Windchill -14 °F
Dew Point -8 °F
Humidity 66%
Rainfall 0.00 in
Snow Depth Not available.
UV 0 out of 12
Pollen .40 out of 12
Air Quality Not available.
Flu Activity Not available.
METAR KAUM 262336Z AUTO 30009KT 10SM CLR M17/M22 A3041 RMK AO2

More Conditions Fewer Conditions

Pressure 30.41 in
Visibility 10.0 miles
Clouds Clear
Windchill -14 °F
Dew Point -8 °F
Humidity 66%
Rainfall 0.00 in
Snow Depth Not available.
UV 0 out of 12
Pollen .40 out of 12
Air Quality Not available.
Flu Activity Not available.
METAR KAUM 262336Z AUTO 30009KT 10SM CLR M17/M22 A3041 RMK AO2

More Conditions Fewer Conditions

10-Day Weather Forecast

Almanac

Astronomy

Feb. 26, 2015 Rise Set
Actual Time
Civil Twilight
Nautical Twilight
Astronomical Twilight
Moon
Length of Visible Light
Length of Day
Tomorrow will be .
, % of the Moon is Illuminated

Today's Extremes

State Highs State Lows

Community

WunderPhotos

Upload Photos

1,800,529 photos uploaded!

WunderBlogs® & News

Nearby

Air Quality

  Air Quality AQ Index Pollutant
Not available.

Snow Depth

Station Depth Elevation

Earthquake Activity

City Distance Mag. Time & Date
Minimum magnitude displayed is 2.5.

Coastal Water Temperatures

Place Temperature

Nearby Weather Stations

Special Statement
Statement as of 3:26 PM CST on February 26, 2015

... Another bitterly cold night expected tonight...

Under clear skies... temperatures will fall into the -10 to
-30 degree range late tonight and early Thursday morning. At
times... a light west wind will produce wind chills of -15 to
-35. Wind chills this low can produce frost bite of exposed skin
in less than 30 minutes.


Boyne